Hlavní strana
METAR-TAF:

METAR-TAF

Letiště :

Džíbútí, Džibutsko

zeměpisná šířka: 11-33N, zeměpisná délka: 043-10E, výška: 49 m

Aktuální stav počasí

Zpráva byla vytvořena před 5 hodinami a 4 minutami, v 16:00 UTC
Severozápadní vítr 5 kt
Teplota 40°C
Vlhkost vzduchu 32%
Tlak 1002 hPa
Viditelnost: 8000 m
Jasno
zákal

METAR: HDAM 171600Z 32005KT 8000 HZ SKC 40/20 Q1002

Čas: 00:04 (21:04 UTC)

Předpověď počasí

Zpráva byla vytvořena před 4 hodinami a 4 minutami, v 17:00 UTC
Předpověď platná od 17 v 18 UTC do 18 v 18 UTC
vítr z různých směrů 5 kt
Viditelnost: 8000 m
zákal
Změna
od 18 v 00 UTC do 18 v 06 UTC
Západní vítr 10 kt
Viditelnost: 8000 m
zákal
Změna
od 18 v 06 UTC do 18 v 12 UTC
Západní vítr 10 kt s nárazy do 20 kt
Viditelnost: 6000 m

TAF: HDAM 171700Z 1718/1818 VRB05KT 8000 HZ NSC BECMG 1800/1806 26010KT 8000 HZ NSC BECMG 1806/1812 28010G20KT 6000 HZ/SA NSC

Stav a předpovědi počasí z více než 4 000 letišť (zprávy METAR a TAF).

Červené a žluté tečky na mapě představují dostupné meteorologické stanice.

Když kurzor umístíte na tečku, zobrazí se název stanice.

Pak kliknutím zobrazíte stav a předpověď počasí.

Chcete-li změnit mapu, kliknutím na zelené tlačítko se znaménkem +mapu přiblížíte, kliknutím na zelené tlačítko se znaménkem – mapu oddálíte a kliknutím na zelené šipky přejdete na sousední mapy.


METAR-TAF: